createdAt,value
2023-04-03T00:00:37.369Z,100110.28
2023-04-03T00:03:06.634Z,100100.75
2023-04-03T00:05:34.924Z,100105.97
2023-04-03T00:08:02.900Z,100111.16
2023-04-03T00:10:30.726Z,100105.94
2023-04-03T00:12:58.307Z,100101.59
2023-04-03T00:15:25.942Z,100104.22
2023-04-03T00:17:53.719Z,100096.41
2023-04-03T00:20:22.817Z,100100.75
2023-04-03T00:22:50.410Z,100104.22
2023-04-03T00:25:18.170Z,100110.28
2023-04-03T00:27:45.897Z,100113.78
2023-04-03T00:30:16.467Z,100108.56
2023-04-03T00:32:44.115Z,100108.56
2023-04-03T00:35:12.205Z,100098.13
2023-04-03T00:37:41.147Z,100105.97
2023-04-03T00:40:10.300Z,100103.34
2023-04-03T00:42:38.139Z,100105.94
2023-04-03T00:45:31.052Z,100108.56
2023-04-03T00:48:00.547Z,100100.75
2023-04-03T00:50:29.220Z,100102.47
2023-04-03T00:52:58.599Z,100097.28
2023-04-03T00:55:27.058Z,100104.22
2023-04-03T00:57:54.943Z,100110.28
2023-04-03T01:00:24.494Z,100103.34
2023-04-03T01:02:52.775Z,100105.97
2023-04-03T01:05:22.593Z,100105.97
2023-04-03T01:07:50.893Z,100105.09
2023-04-03T01:10:21.754Z,100105.97
2023-04-03T01:12:51.496Z,100108.56
2023-04-03T01:15:21.653Z,100101.59
2023-04-03T01:17:50.364Z,100102.47
2023-04-03T01:20:44.859Z,100102.47
2023-04-03T01:23:34.906Z,100108.56
2023-04-03T01:26:04.833Z,100099.88
2023-04-03T01:28:34.515Z,100097.28
2023-04-03T01:31:06.771Z,100095.53
2023-04-03T01:33:36.605Z,100101.59
2023-04-03T01:36:05.079Z,100094.66
2023-04-03T01:38:32.702Z,100099.00
2023-04-03T01:41:00.543Z,100102.47
2023-04-03T01:43:28.187Z,100099.00
2023-04-03T01:45:56.115Z,100100.75
2023-04-03T01:48:23.843Z,100104.22
2023-04-03T01:50:52.737Z,100103.34
2023-04-03T01:53:20.415Z,100101.59
2023-04-03T01:55:48.160Z,100095.53
2023-04-03T01:58:16.653Z,100100.75
2023-04-03T02:00:44.393Z,100102.47
2023-04-03T02:03:12.124Z,100104.22
2023-04-03T02:05:39.847Z,100097.25
2023-04-03T02:08:08.839Z,100099.00
2023-04-03T02:10:36.712Z,100105.09
2023-04-03T02:13:05.044Z,100099.88
2023-04-03T02:15:32.820Z,100099.88
2023-04-03T02:18:00.429Z,100095.53
2023-04-03T02:20:28.204Z,100099.84
2023-04-03T02:22:55.755Z,100091.19
2023-04-03T02:25:24.674Z,100098.13
2023-04-03T02:27:52.398Z,100085.09
2023-04-03T02:30:20.304Z,100085.97
2023-04-03T02:32:47.918Z,100086.84
2023-04-03T02:35:15.836Z,100085.97
2023-04-03T02:37:43.553Z,100083.38
2023-04-03T02:40:12.397Z,100069.47
2023-04-03T02:42:41.368Z,100088.56
2023-04-03T02:45:09.757Z,100084.22
2023-04-03T02:47:37.362Z,100089.44
2023-04-03T02:50:05.548Z,100088.56
2023-04-03T02:52:33.179Z,100090.31
2023-04-03T02:55:00.766Z,100095.50
2023-04-03T02:57:28.414Z,100089.44
2023-04-03T02:59:57.327Z,100099.84
2023-04-03T03:02:25.035Z,100101.56
2023-04-03T03:04:52.652Z,100102.44
2023-04-03T03:07:20.283Z,100107.66
2023-04-03T03:09:48.005Z,100099.84
2023-04-03T03:12:15.635Z,100102.47
2023-04-03T03:14:43.838Z,100105.94
2023-04-03T03:17:12.727Z,100105.06
2023-04-03T03:19:40.318Z,100110.25
2023-04-03T03:22:07.946Z,100109.41
2023-04-03T03:24:35.502Z,100105.03
2023-04-03T03:27:03.131Z,100110.28
2023-04-03T03:29:30.680Z,100100.72
2023-04-03T03:31:58.224Z,100108.50
2023-04-03T03:34:27.138Z,100105.06
2023-04-03T03:36:54.756Z,100106.78
2023-04-03T03:39:22.369Z,100108.53
2023-04-03T03:41:50.673Z,100105.06
2023-04-03T03:44:18.263Z,100108.50
2023-04-03T03:46:45.849Z,100104.19
2023-04-03T03:49:13.647Z,100093.75
2023-04-03T03:51:42.609Z,100105.91
2023-04-03T03:54:10.407Z,100105.06
2023-04-03T03:56:38.149Z,100101.56
2023-04-03T03:59:05.981Z,100102.44
2023-04-03T04:01:33.636Z,100098.97
2023-04-03T04:04:01.265Z,100100.72
2023-04-03T04:06:28.945Z,100098.97
2023-04-03T04:08:58.077Z,100098.09
2023-04-03T04:11:25.904Z,100100.69
2023-04-03T04:13:53.461Z,100103.31
2023-04-03T04:16:21.329Z,100106.78
2023-04-03T04:18:48.930Z,100105.91
2023-04-03T04:21:16.548Z,100104.16
2023-04-03T04:23:44.066Z,100104.13
2023-04-03T04:26:12.987Z,100102.38
2023-04-03T04:28:40.582Z,100100.63
2023-04-03T04:31:08.413Z,100103.25
2023-04-03T04:33:36.644Z,100114.53
2023-04-03T04:36:04.698Z,100109.31
2023-04-03T04:38:32.348Z,100110.19
2023-04-03T04:40:59.944Z,100106.69
2023-04-03T04:43:28.865Z,100104.06
2023-04-03T04:46:04.143Z,100114.50
2023-04-03T04:48:32.828Z,100117.94
2023-04-03T04:51:00.770Z,100109.28
2023-04-03T04:53:28.490Z,100117.06
2023-04-03T04:55:56.334Z,100110.06
2023-04-03T04:58:23.956Z,100121.34
2023-04-03T05:01:00.490Z,100114.44
2023-04-03T05:03:28.144Z,100117.00
2023-04-03T05:05:55.814Z,100122.22
2023-04-03T05:08:23.772Z,100125.69
2023-04-03T05:10:52.756Z,100122.19
2023-04-03T05:13:21.817Z,100126.56
2023-04-03T05:15:49.621Z,100131.69
2023-04-03T05:18:18.670Z,100133.47
2023-04-03T05:20:46.342Z,100132.59
2023-04-03T05:23:13.904Z,100133.38
2023-04-03T05:25:41.492Z,100144.69
2023-04-03T05:28:09.403Z,100136.84
2023-04-03T05:30:37.066Z,100137.72
2023-04-03T05:33:04.903Z,100145.53
2023-04-03T05:35:34.051Z,100156.72
2023-04-03T05:38:01.897Z,100148.97
2023-04-03T05:40:29.427Z,100152.44
2023-04-03T05:42:57.014Z,100161.94
2023-04-03T05:45:24.573Z,100154.97
2023-04-03T05:47:52.155Z,100155.88
2023-04-03T05:50:20.019Z,100163.69
2023-04-03T05:52:50.921Z,100175.00
2023-04-03T05:55:18.669Z,100161.13
2023-04-03T05:57:46.247Z,100168.09
2023-04-03T06:00:16.394Z,100165.56
2023-04-03T06:02:44.719Z,100163.72
2023-04-03T06:05:14.037Z,100173.25
2023-04-03T06:07:41.712Z,100178.41
2023-04-03T06:10:13.228Z,100175.00
2023-04-03T06:12:41.255Z,100184.59
2023-04-03T06:15:10.936Z,100172.53
2023-04-03T06:17:39.278Z,100184.66
2023-04-03T06:20:08.665Z,100174.25
2023-04-03T06:22:36.338Z,100182.09
2023-04-03T06:25:04.793Z,100188.13
2023-04-03T06:27:33.744Z,100189.78
2023-04-03T06:30:01.306Z,100195.06
2023-04-03T06:32:28.892Z,100191.56
2023-04-03T06:34:56.482Z,100184.63
2023-04-03T06:37:26.885Z,100198.50
2023-04-03T06:39:54.653Z,100191.69
2023-04-03T06:42:22.558Z,100201.22
2023-04-03T06:44:51.649Z,100189.94
2023-04-03T06:47:19.865Z,100189.94
2023-04-03T06:49:47.665Z,100209.19
2023-04-03T06:52:15.310Z,100205.63
2023-04-03T06:54:43.011Z,100207.38
2023-04-03T06:57:10.697Z,100211.81
2023-04-03T06:59:38.455Z,100217.88
2023-04-03T07:02:07.811Z,100213.59
2023-04-03T07:04:35.742Z,100220.56
2023-04-03T07:07:03.336Z,100221.41
2023-04-03T07:09:31.468Z,100220.50
2023-04-03T07:11:59.080Z,100222.31
2023-04-03T07:14:26.753Z,100224.09
2023-04-03T07:16:54.378Z,100226.69
2023-04-03T07:19:25.358Z,100227.50
2023-04-03T07:21:52.970Z,100232.78
2023-04-03T07:24:20.529Z,100235.44
2023-04-03T07:26:51.305Z,100230.25
2023-04-03T07:29:18.868Z,100234.56
2023-04-03T07:31:46.566Z,100243.25
2023-04-03T07:34:14.326Z,100242.38
2023-04-03T07:36:43.460Z,100242.34
2023-04-03T07:39:12.064Z,100239.78
2023-04-03T07:41:39.691Z,100250.19
2023-04-03T07:44:10.593Z,100242.41
2023-04-03T07:46:38.342Z,100245.91
2023-04-03T07:49:06.317Z,100246.75
2023-04-03T07:51:33.873Z,100244.16
2023-04-03T07:54:02.846Z,100239.81
2023-04-03T07:56:30.457Z,100259.81
2023-04-03T07:58:58.025Z,100253.72
2023-04-03T08:01:25.640Z,100250.25
2023-04-03T08:03:53.315Z,100255.47
2023-04-03T08:06:29.349Z,100246.75
2023-04-03T08:09:02.624Z,100257.19
2023-04-03T08:11:30.311Z,100255.47
2023-04-03T08:13:58.115Z,100258.06
2023-04-03T08:16:27.727Z,100251.97
2023-04-03T08:18:55.715Z,100257.22
2023-04-03T08:21:23.754Z,100265.91
2023-04-03T08:23:52.157Z,100258.94
2023-04-03T08:26:23.222Z,100253.69
2023-04-03T08:28:51.143Z,100254.56
2023-04-03T08:31:21.110Z,100242.41
2023-04-03T08:33:50.176Z,100247.59
2023-04-03T08:36:20.377Z,100251.13
2023-04-03T08:38:48.017Z,100250.19
2023-04-03T08:41:17.688Z,100253.69
2023-04-03T08:43:58.501Z,100245.88
2023-04-03T08:46:30.797Z,100255.44
2023-04-03T08:48:59.445Z,100252.84
2023-04-03T08:51:28.368Z,100250.25
2023-04-03T08:53:59.036Z,100256.31
2023-04-03T08:56:26.774Z,100265.84
2023-04-03T08:58:58.229Z,100268.50
2023-04-03T09:01:28.717Z,100265.84
2023-04-03T09:03:56.519Z,100251.81
2023-04-03T09:06:25.929Z,100267.44
2023-04-03T09:08:58.509Z,100250.16
2023-04-03T09:11:28.362Z,100255.16
2023-04-03T09:14:02.044Z,100251.69
2023-04-03T09:16:38.390Z,100259.53
2023-04-03T09:19:15.570Z,100253.34
2023-04-03T09:21:43.748Z,100257.00
2023-04-03T09:24:12.880Z,100252.63
2023-04-03T09:26:44.494Z,100257.88
2023-04-03T09:29:16.857Z,100256.00
2023-04-03T09:31:45.052Z,100248.22
2023-04-03T09:34:23.566Z,100244.53
2023-04-03T09:36:53.336Z,100248.84
2023-04-03T09:39:22.886Z,100246.19
2023-04-03T09:42:05.223Z,100250.56
2023-04-03T09:44:36.696Z,100254.97
2023-04-03T09:47:20.496Z,100245.56
2023-04-03T09:49:48.077Z,100256.91
2023-04-03T09:52:24.298Z,100248.13
2023-04-03T09:54:51.952Z,100245.38
2023-04-03T09:57:20.037Z,100238.28
2023-04-03T10:00:00.657Z,100247.00
2023-04-03T10:02:36.507Z,100254.22
2023-04-03T10:07:37.894Z,100245.25
2023-04-03T10:10:19.182Z,100240.88
2023-04-03T10:12:47.409Z,100243.66
2023-04-03T10:15:18.037Z,100259.53
2023-04-03T10:17:54.579Z,100250.69
2023-04-03T10:20:29.405Z,100253.03
2023-04-03T10:23:05.100Z,100247.19
2023-04-03T10:25:37.452Z,100246.47
2023-04-03T10:28:08.259Z,100240.53
2023-04-03T10:30:44.023Z,100247.34
2023-04-03T10:33:21.815Z,100248.09
2023-04-03T10:35:55.565Z,100251.56
2023-04-03T10:38:30.281Z,100253.06
2023-04-03T10:41:02.951Z,100234.94
2023-04-03T10:43:36.158Z,100237.13
2023-04-03T10:46:09.835Z,100229.25
2023-04-03T10:48:45.529Z,100239.91
2023-04-03T10:51:27.123Z,100240.75
2023-04-03T10:53:59.007Z,100238.06
2023-04-03T10:56:34.105Z,100249.53
2023-04-03T10:59:10.336Z,100240.78
2023-04-03T11:01:41.590Z,100228.47
2023-04-03T11:04:09.802Z,100231.06
2023-04-03T11:06:40.554Z,100216.34
2023-04-03T11:09:17.037Z,100222.44
2023-04-03T11:11:45.165Z,100215.19
2023-04-03T11:14:17.368Z,100228.38
2023-04-03T11:16:54.295Z,100217.00
2023-04-03T11:19:25.260Z,100227.47
2023-04-03T11:21:57.484Z,100221.47
2023-04-03T11:24:27.879Z,100225.50
2023-04-03T11:26:56.870Z,100210.06
2023-04-03T11:29:34.912Z,100213.44
2023-04-03T11:32:11.921Z,100206.44
2023-04-03T11:34:44.145Z,100213.97
2023-04-03T11:37:18.167Z,100208.31
2023-04-03T11:39:52.737Z,100201.34
2023-04-03T11:42:34.201Z,100199.44
2023-04-03T11:45:35.418Z,100211.31
2023-04-03T11:48:20.805Z,100217.34
2023-04-03T11:50:49.190Z,100206.25
2023-04-03T11:53:37.911Z,100211.19
2023-04-03T11:56:37.076Z,100212.81
2023-04-03T11:59:21.513Z,100202.44
2023-04-03T12:01:50.977Z,100197.66
2023-04-03T12:04:20.867Z,100185.34
2023-04-03T12:07:24.097Z,100193.50
2023-04-03T12:10:01.528Z,100201.53
2023-04-03T12:12:40.502Z,100184.66
2023-04-03T12:15:21.739Z,100188.78
2023-04-03T12:17:49.425Z,100193.16
2023-04-03T12:20:57.818Z,100185.59
2023-04-03T12:23:28.387Z,100175.78
2023-04-03T12:26:05.633Z,100172.38
2023-04-03T12:28:39.713Z,100171.47
2023-04-03T12:31:10.455Z,100173.72
2023-04-03T12:33:48.238Z,100165.28
2023-04-03T12:36:20.603Z,100170.03
2023-04-03T12:39:03.507Z,100166.53
2023-04-03T12:41:39.217Z,100159.47
2023-04-03T12:44:25.502Z,100167.03
2023-04-03T12:46:54.595Z,100161.22
2023-04-03T12:49:36.090Z,100153.34
2023-04-03T12:52:24.117Z,100160.34
2023-04-03T12:54:52.455Z,100166.13
2023-04-03T12:57:21.410Z,100149.13
2023-04-03T12:59:49.561Z,100132.81
2023-04-03T13:02:24.464Z,100128.88
2023-04-03T13:04:58.744Z,100136.84
2023-04-03T13:07:32.585Z,100151.72
2023-04-03T13:10:02.746Z,100140.56
2023-04-03T13:12:32.274Z,100151.13
2023-04-03T13:15:05.129Z,100150.34
2023-04-03T13:17:33.170Z,100152.91
2023-04-03T13:20:12.697Z,100135.16
2023-04-03T13:22:51.414Z,100135.66
2023-04-03T13:25:19.984Z,100130.34
2023-04-03T13:27:47.621Z,100140.06
2023-04-03T13:30:25.967Z,100137.97
2023-04-03T13:32:54.007Z,100136.09
2023-04-03T13:35:34.826Z,100129.94
2023-04-03T13:38:08.271Z,100136.66
2023-04-03T13:40:46.937Z,100126.38
2023-04-03T13:43:20.838Z,100131.69
2023-04-03T13:46:07.738Z,100131.38
2023-04-03T13:48:40.885Z,100125.63
2023-04-03T13:51:19.835Z,100128.44
2023-04-03T13:53:51.638Z,100133.03
2023-04-03T13:56:22.822Z,100121.03
2023-04-03T13:59:04.132Z,100117.59
2023-04-03T14:01:43.939Z,100113.94
2023-04-03T14:04:20.616Z,100119.94
2023-04-03T14:06:48.811Z,100114.19
2023-04-03T14:09:19.303Z,100123.75
2023-04-03T14:11:48.288Z,100109.66
2023-04-03T14:14:19.459Z,100121.06
2023-04-03T14:16:49.945Z,100129.03
2023-04-03T14:19:21.731Z,100106.34
2023-04-03T14:21:49.759Z,100104.25
2023-04-03T14:24:20.009Z,100104.16
2023-04-03T14:26:48.342Z,100096.84
2023-04-03T14:29:16.513Z,100092.59
2023-04-03T14:31:45.540Z,100099.78
2023-04-03T14:34:13.532Z,100099.41
2023-04-03T14:36:42.603Z,100095.94
2023-04-03T14:39:13.532Z,100102.50
2023-04-03T14:41:42.409Z,100105.72
2023-04-03T14:44:09.974Z,100091.50
2023-04-03T14:46:55.395Z,100082.84
2023-04-03T14:49:26.476Z,100091.28
2023-04-03T14:51:54.586Z,100089.59
2023-04-03T14:54:26.492Z,100092.06
2023-04-03T14:56:57.268Z,100085.94
2023-04-03T14:59:24.843Z,100091.28
2023-04-03T15:01:52.553Z,100087.34
2023-04-03T15:04:22.410Z,100090.72
2023-04-03T15:06:50.361Z,100083.88
2023-04-03T15:09:22.439Z,100088.38
2023-04-03T15:11:50.531Z,100083.19
2023-04-03T15:14:29.927Z,100086.59
2023-04-03T15:17:05.014Z,100087.78
2023-04-03T15:19:33.507Z,100077.09
2023-04-03T15:22:01.163Z,100095.50
2023-04-03T15:24:28.665Z,100082.38
2023-04-03T15:26:56.399Z,100087.44
2023-04-03T15:29:25.909Z,100088.38
2023-04-03T15:31:54.695Z,100093.75
2023-04-03T15:34:23.081Z,100095.63
2023-04-03T15:36:53.398Z,100075.38
2023-04-03T15:39:21.525Z,100079.03
2023-04-03T15:41:49.421Z,100088.78
2023-04-03T15:44:18.522Z,100086.00
2023-04-03T15:46:47.839Z,100087.78
2023-04-03T15:49:15.495Z,100073.16
2023-04-03T15:51:43.235Z,100089.66
2023-04-03T15:54:10.790Z,100091.44
2023-04-03T15:56:38.352Z,100094.97
2023-04-03T15:59:06.279Z,100095.88
2023-04-03T16:01:34.001Z,100090.59
2023-04-03T16:04:02.991Z,100094.97
2023-04-03T16:06:32.725Z,100094.19
2023-04-03T16:09:01.622Z,100084.63
2023-04-03T16:11:29.493Z,100079.53
2023-04-03T16:13:57.079Z,100081.19
2023-04-03T16:16:25.571Z,100078.81
2023-04-03T16:18:53.292Z,100082.22
2023-04-03T16:21:22.246Z,100083.00
2023-04-03T16:23:50.420Z,100087.19
2023-04-03T16:26:18.389Z,100096.75
2023-04-03T16:28:46.055Z,100092.53
2023-04-03T16:31:13.687Z,100089.00
2023-04-03T16:33:41.520Z,100090.13
2023-04-03T16:36:09.490Z,100093.63
2023-04-03T16:38:38.691Z,100078.94
2023-04-03T16:41:06.569Z,100084.16
2023-04-03T16:43:34.729Z,100070.09
2023-04-03T16:46:03.758Z,100081.53
2023-04-03T16:48:32.015Z,100078.94
2023-04-03T16:51:00.529Z,100080.75
2023-04-03T16:53:29.115Z,100079.78
2023-04-03T16:55:59.503Z,100078.16
2023-04-03T16:58:27.164Z,100074.78
2023-04-03T17:00:55.902Z,100082.56
2023-04-03T17:03:26.742Z,100077.31
2023-04-03T17:05:54.652Z,100080.88
2023-04-03T17:08:22.227Z,100076.56
2023-04-03T17:10:51.533Z,100067.03
2023-04-03T17:13:20.437Z,100082.91
2023-04-03T17:15:48.077Z,100082.84
2023-04-03T17:18:15.962Z,100087.22
2023-04-03T17:20:43.511Z,100091.69
2023-04-03T17:23:11.230Z,100088.19
2023-04-03T17:25:39.049Z,100093.47
2023-04-03T17:28:06.747Z,100085.75
2023-04-03T17:30:35.738Z,100085.75
2023-04-03T17:33:03.327Z,100088.50
2023-04-03T17:35:31.486Z,100085.97
2023-04-03T17:37:59.022Z,100093.88
2023-04-03T17:40:26.998Z,100089.56
2023-04-03T17:42:54.596Z,100103.63
2023-04-03T17:45:22.423Z,100096.63
2023-04-03T17:47:52.650Z,100108.88
2023-04-03T17:50:20.569Z,100114.13
2023-04-03T17:52:48.211Z,100100.25
2023-04-03T17:55:17.637Z,100102.91
2023-04-03T17:57:45.342Z,100109.97
2023-04-03T18:00:15.615Z,100109.97
2023-04-03T18:02:43.455Z,100112.59
2023-04-03T18:05:12.912Z,100113.50
2023-04-03T18:07:40.985Z,100113.53
2023-04-03T18:10:09.973Z,100118.78
2023-04-03T18:12:37.831Z,100110.97
2023-04-03T18:15:06.342Z,100116.19
2023-04-03T18:17:33.977Z,100116.25
2023-04-03T18:20:01.603Z,100123.22
2023-04-03T18:22:30.766Z,100124.09
2023-04-03T18:24:59.388Z,100124.13
2023-04-03T18:27:28.409Z,100126.72
2023-04-03T18:29:58.385Z,100118.91
2023-04-03T18:32:26.203Z,100117.19
2023-04-03T18:34:53.751Z,100117.19
2023-04-03T18:37:23.813Z,100105.06
2023-04-03T18:39:52.964Z,100123.28
2023-04-03T18:42:22.841Z,100125.91
2023-04-03T18:44:53.344Z,100128.53
2023-04-03T18:47:20.903Z,100126.78
2023-04-03T18:49:48.502Z,100132.88
2023-04-03T18:52:16.111Z,100127.66
2023-04-03T18:54:44.057Z,100138.09
2023-04-03T18:57:13.041Z,100133.75
2023-04-03T18:59:40.595Z,100138.97
2023-04-03T19:02:08.596Z,100138.09
2023-04-03T19:04:36.485Z,100148.53
2023-04-03T19:07:06.263Z,100153.75
2023-04-03T19:09:34.302Z,100145.06
2023-04-03T19:12:02.557Z,100151.13
2023-04-03T19:14:31.519Z,100157.22
2023-04-03T19:16:59.200Z,100149.41
2023-04-03T19:19:26.889Z,100156.34
2023-04-03T19:21:54.491Z,100161.56
2023-04-03T19:24:22.357Z,100167.63
2023-04-03T19:26:49.947Z,100157.19
2023-04-03T19:29:17.816Z,100165.88
2023-04-03T19:31:46.774Z,100175.44
2023-04-03T19:34:14.458Z,100171.06
2023-04-03T19:36:43.117Z,100160.63
2023-04-03T19:39:12.250Z,100165.84
2023-04-03T19:41:42.983Z,100171.03
2023-04-03T19:44:10.898Z,100172.72
2023-04-03T19:46:38.502Z,100178.78
2023-04-03T19:49:07.537Z,100177.94
2023-04-03T19:51:35.087Z,100175.31
2023-04-03T19:54:02.665Z,100177.03
2023-04-03T19:56:30.542Z,100185.72
2023-04-03T19:58:58.107Z,100175.31
2023-04-03T20:01:27.714Z,100183.94
2023-04-03T20:03:55.437Z,100182.19
2023-04-03T20:06:24.440Z,100179.59
2023-04-03T20:08:52.052Z,100177.84
2023-04-03T20:11:19.719Z,100176.09
2023-04-03T20:13:49.861Z,100183.03
2023-04-03T20:16:18.152Z,100175.19
2023-04-03T20:18:47.350Z,100176.88
2023-04-03T20:21:15.012Z,100179.50
2023-04-03T20:23:44.657Z,100175.97
2023-04-03T20:26:23.197Z,100173.38
2023-04-03T20:28:50.985Z,100174.22
2023-04-03T20:31:18.666Z,100170.75
2023-04-03T20:33:47.761Z,100160.28
2023-04-03T20:36:15.735Z,100175.88
2023-04-03T20:38:44.726Z,100181.94
2023-04-03T20:41:12.690Z,100181.06
2023-04-03T20:43:42.638Z,100186.25
2023-04-03T20:46:10.776Z,100179.28
2023-04-03T20:48:39.114Z,100188.78
2023-04-03T20:51:10.977Z,100180.09
2023-04-03T20:53:38.557Z,100180.91
2023-04-03T20:56:09.026Z,100181.81
2023-04-03T20:58:39.423Z,100177.47
2023-04-03T21:01:15.341Z,100178.28
2023-04-03T21:03:43.201Z,100179.16
2023-04-03T21:06:49.550Z,100176.50
2023-04-03T21:09:54.519Z,100178.25
2023-04-03T21:13:00.196Z,100174.75
2023-04-03T21:15:55.189Z,100186.81
2023-04-03T21:18:52.816Z,100177.22
2023-04-03T21:21:23.021Z,100177.22
2023-04-03T21:23:51.836Z,100178.13
2023-04-03T21:26:19.567Z,100182.41
2023-04-03T21:28:47.315Z,100184.94
2023-04-03T21:31:15.272Z,100182.38
2023-04-03T21:33:43.290Z,100185.84
2023-04-03T21:36:12.338Z,100179.72
2023-04-03T21:38:39.885Z,100181.44
2023-04-03T21:41:07.520Z,100182.25
2023-04-03T21:43:35.213Z,100177.13
2023-04-03T21:46:02.850Z,100180.53
2023-04-03T21:48:30.882Z,100175.34
2023-04-03T21:51:05.129Z,100175.31
2023-04-03T21:53:34.469Z,100180.38
2023-04-03T21:56:02.606Z,100179.53
2023-04-03T21:58:31.995Z,100182.00
2023-04-03T22:01:00.174Z,100183.72
2023-04-03T22:03:27.816Z,100169.84
2023-04-03T22:05:59.444Z,100169.78
2023-04-03T22:08:27.099Z,100174.88
2023-04-03T22:11:02.544Z,100169.72
2023-04-03T22:13:30.391Z,100169.66
2023-04-03T22:15:59.145Z,100163.59
2023-04-03T22:18:27.202Z,100166.00
2023-04-03T22:20:55.551Z,100163.47
2023-04-03T22:23:23.125Z,100160.91
2023-04-03T22:26:02.590Z,100166.84
2023-04-03T22:28:31.031Z,100166.75
2023-04-03T22:31:01.926Z,100166.84
2023-04-03T22:33:29.442Z,100169.22
2023-04-03T22:35:57.060Z,100166.66
2023-04-03T22:38:24.920Z,100160.59
2023-04-03T22:40:58.629Z,100166.59
2023-04-03T22:43:28.540Z,100166.56
2023-04-03T22:45:56.437Z,100170.00
2023-04-03T22:48:24.593Z,100166.50
2023-04-03T22:50:52.422Z,100160.41
2023-04-03T22:53:19.943Z,100165.50
2023-04-03T22:55:55.373Z,100166.22
2023-04-03T22:58:25.802Z,100173.13
2023-04-03T23:00:55.515Z,100168.97
2023-04-03T23:03:24.212Z,100169.69
2023-04-03T23:05:52.510Z,100174.00
2023-04-03T23:08:20.188Z,100179.19
2023-04-03T23:10:48.752Z,100174.00
2023-04-03T23:13:16.334Z,100178.13
2023-04-03T23:15:43.930Z,100173.78
2023-04-03T23:18:12.820Z,100180.66
2023-04-03T23:20:40.694Z,100170.22
2023-04-03T23:23:08.381Z,100183.94
2023-04-03T23:25:36.539Z,100185.63
2023-04-03T23:28:04.179Z,100182.22
2023-04-03T23:30:32.236Z,100176.94
2023-04-03T23:32:59.905Z,100184.75
2023-04-03T23:35:30.102Z,100181.28
2023-04-03T23:37:57.829Z,100179.63
2023-04-03T23:40:25.483Z,100182.97
2023-04-03T23:42:53.066Z,100179.44
2023-04-03T23:45:20.570Z,100179.44
2023-04-03T23:47:48.085Z,100175.22
2023-04-03T23:50:15.832Z,100175.13
2023-04-03T23:52:44.753Z,100168.91
2023-04-03T23:55:12.623Z,100165.56
2023-04-03T23:57:42.438Z,100169.00
